sensor_id;sensor_type;location;lat;lon;timestamp;P1;durP1;ratioP1;P2;durP2;ratioP2
8317;SDS011;4196;48.926;8.964;2023-11-21T00:00:28;1.13;;;0.90;;
8317;SDS011;4196;48.926;8.964;2023-11-21T00:03:14;3.07;;;0.90;;
8317;SDS011;4196;48.926;8.964;2023-11-21T00:06:05;2.17;;;1.10;;
8317;SDS011;4196;48.926;8.964;2023-11-21T00:08:55;1.57;;;1.23;;
8317;SDS011;4196;48.926;8.964;2023-11-21T00:11:42;1.27;;;1.00;;
8317;SDS011;4196;48.926;8.964;2023-11-21T00:14:29;4.10;;;1.07;;
8317;SDS011;4196;48.926;8.964;2023-11-21T00:17:16;1.40;;;0.97;;
8317;SDS011;4196;48.926;8.964;2023-11-21T00:20:03;1.20;;;0.90;;
8317;SDS011;4196;48.926;8.964;2023-11-21T00:22:52;3.13;;;0.97;;
8317;SDS011;4196;48.926;8.964;2023-11-21T00:25:39;1.30;;;1.07;;
8317;SDS011;4196;48.926;8.964;2023-11-21T00:28:26;0.93;;;0.80;;
8317;SDS011;4196;48.926;8.964;2023-11-21T00:31:12;1.03;;;0.90;;
8317;SDS011;4196;48.926;8.964;2023-11-21T00:34:00;1.50;;;0.87;;
8317;SDS011;4196;48.926;8.964;2023-11-21T00:36:46;1.23;;;0.83;;
8317;SDS011;4196;48.926;8.964;2023-11-21T00:39:33;2.40;;;1.00;;
8317;SDS011;4196;48.926;8.964;2023-11-21T00:42:21;0.90;;;0.50;;
8317;SDS011;4196;48.926;8.964;2023-11-21T00:45:08;2.70;;;0.90;;
8317;SDS011;4196;48.926;8.964;2023-11-21T00:47:55;1.80;;;1.17;;
8317;SDS011;4196;48.926;8.964;2023-11-21T00:50:41;0.50;;;0.50;;
8317;SDS011;4196;48.926;8.964;2023-11-21T00:53:28;0.80;;;0.60;;
8317;SDS011;4196;48.926;8.964;2023-11-21T00:56:15;1.37;;;0.73;;
8317;SDS011;4196;48.926;8.964;2023-11-21T00:59:02;0.50;;;0.50;;
8317;SDS011;4196;48.926;8.964;2023-11-21T01:01:51;0.57;;;0.57;;
8317;SDS011;4196;48.926;8.964;2023-11-21T01:04:37;0.80;;;0.80;;
8317;SDS011;4196;48.926;8.964;2023-11-21T01:07:24;4.60;;;0.83;;
8317;SDS011;4196;48.926;8.964;2023-11-21T01:10:11;1.10;;;0.70;;
8317;SDS011;4196;48.926;8.964;2023-11-21T01:12:57;1.13;;;0.80;;
8317;SDS011;4196;48.926;8.964;2023-11-21T01:15:44;0.53;;;0.43;;
8317;SDS011;4196;48.926;8.964;2023-11-21T01:18:30;1.63;;;0.53;;
8317;SDS011;4196;48.926;8.964;2023-11-21T01:21:17;1.77;;;0.90;;
8317;SDS011;4196;48.926;8.964;2023-11-21T01:24:03;1.03;;;0.93;;
8317;SDS011;4196;48.926;8.964;2023-11-21T01:26:53;0.90;;;0.90;;
8317;SDS011;4196;48.926;8.964;2023-11-21T01:29:39;1.53;;;1.10;;
8317;SDS011;4196;48.926;8.964;2023-11-21T01:32:26;1.40;;;1.03;;
8317;SDS011;4196;48.926;8.964;2023-11-21T01:35:12;2.03;;;0.80;;
8317;SDS011;4196;48.926;8.964;2023-11-21T01:37:59;0.93;;;0.73;;
8317;SDS011;4196;48.926;8.964;2023-11-21T01:40:45;1.13;;;0.80;;
8317;SDS011;4196;48.926;8.964;2023-11-21T01:43:32;2.33;;;0.97;;
8317;SDS011;4196;48.926;8.964;2023-11-21T01:46:19;2.33;;;0.97;;
8317;SDS011;4196;48.926;8.964;2023-11-21T01:49:06;1.00;;;0.73;;
8317;SDS011;4196;48.926;8.964;2023-11-21T01:51:55;0.70;;;0.63;;
8317;SDS011;4196;48.926;8.964;2023-11-21T01:54:42;1.77;;;0.80;;
8317;SDS011;4196;48.926;8.964;2023-11-21T01:57:29;1.67;;;1.13;;
8317;SDS011;4196;48.926;8.964;2023-11-21T02:00:16;1.00;;;0.80;;
8317;SDS011;4196;48.926;8.964;2023-11-21T02:03:02;3.37;;;0.77;;
8317;SDS011;4196;48.926;8.964;2023-11-21T02:05:50;6.37;;;1.77;;
8317;SDS011;4196;48.926;8.964;2023-11-21T02:08:37;0.60;;;0.60;;
8317;SDS011;4196;48.926;8.964;2023-11-21T02:11:24;0.80;;;0.70;;
8317;SDS011;4196;48.926;8.964;2023-11-21T02:14:10;2.43;;;1.00;;
8317;SDS011;4196;48.926;8.964;2023-11-21T02:16:58;2.67;;;1.20;;
8317;SDS011;4196;48.926;8.964;2023-11-21T02:19:45;1.07;;;1.00;;
8317;SDS011;4196;48.926;8.964;2023-11-21T02:22:33;1.47;;;0.83;;
8317;SDS011;4196;48.926;8.964;2023-11-21T02:25:26;0.90;;;0.90;;
8317;SDS011;4196;48.926;8.964;2023-11-21T02:28:20;1.10;;;0.80;;
8317;SDS011;4196;48.926;8.964;2023-11-21T02:31:12;1.23;;;0.80;;
8317;SDS011;4196;48.926;8.964;2023-11-21T02:33:58;2.40;;;1.03;;
8317;SDS011;4196;48.926;8.964;2023-11-21T02:36:46;0.93;;;0.87;;
8317;SDS011;4196;48.926;8.964;2023-11-21T02:39:35;2.57;;;1.07;;
8317;SDS011;4196;48.926;8.964;2023-11-21T02:42:22;1.10;;;0.97;;
8317;SDS011;4196;48.926;8.964;2023-11-21T02:45:08;1.10;;;1.03;;
8317;SDS011;4196;48.926;8.964;2023-11-21T02:47:58;0.90;;;0.90;;
8317;SDS011;4196;48.926;8.964;2023-11-21T02:50:45;1.00;;;1.00;;
8317;SDS011;4196;48.926;8.964;2023-11-21T02:53:32;2.43;;;1.43;;
8317;SDS011;4196;48.926;8.964;2023-11-21T02:56:19;1.00;;;0.90;;
8317;SDS011;4196;48.926;8.964;2023-11-21T02:59:06;4.90;;;1.03;;
8317;SDS011;4196;48.926;8.964;2023-11-21T03:01:53;1.13;;;1.03;;
8317;SDS011;4196;48.926;8.964;2023-11-21T03:04:39;0.73;;;0.70;;
8317;SDS011;4196;48.926;8.964;2023-11-21T03:07:26;1.10;;;0.80;;
8317;SDS011;4196;48.926;8.964;2023-11-21T03:10:13;0.77;;;0.70;;
8317;SDS011;4196;48.926;8.964;2023-11-21T03:12:59;0.77;;;0.67;;
8317;SDS011;4196;48.926;8.964;2023-11-21T03:15:46;1.30;;;0.70;;
8317;SDS011;4196;48.926;8.964;2023-11-21T03:18:33;1.27;;;0.80;;
8317;SDS011;4196;48.926;8.964;2023-11-21T03:21:21;1.90;;;0.90;;
8317;SDS011;4196;48.926;8.964;2023-11-21T03:24:07;0.93;;;0.90;;
8317;SDS011;4196;48.926;8.964;2023-11-21T03:26:53;0.70;;;0.70;;
8317;SDS011;4196;48.926;8.964;2023-11-21T03:29:40;2.30;;;1.10;;
8317;SDS011;4196;48.926;8.964;2023-11-21T03:32:26;1.40;;;0.90;;
8317;SDS011;4196;48.926;8.964;2023-11-21T03:35:13;11.30;;;2.53;;
8317;SDS011;4196;48.926;8.964;2023-11-21T03:37:59;1.17;;;1.10;;
8317;SDS011;4196;48.926;8.964;2023-11-21T03:40:48;0.83;;;0.83;;
8317;SDS011;4196;48.926;8.964;2023-11-21T03:43:34;2.00;;;0.97;;
8317;SDS011;4196;48.926;8.964;2023-11-21T03:46:21;1.90;;;1.00;;
8317;SDS011;4196;48.926;8.964;2023-11-21T03:49:08;2.07;;;0.93;;
8317;SDS011;4196;48.926;8.964;2023-11-21T03:51:55;1.17;;;1.07;;
8317;SDS011;4196;48.926;8.964;2023-11-21T03:54:42;2.03;;;1.10;;
8317;SDS011;4196;48.926;8.964;2023-11-21T03:57:29;1.10;;;1.00;;
8317;SDS011;4196;48.926;8.964;2023-11-21T04:00:16;1.00;;;0.97;;
8317;SDS011;4196;48.926;8.964;2023-11-21T04:03:03;1.00;;;1.00;;
8317;SDS011;4196;48.926;8.964;2023-11-21T04:05:51;1.90;;;1.20;;
8317;SDS011;4196;48.926;8.964;2023-11-21T04:08:37;1.93;;;1.20;;
8317;SDS011;4196;48.926;8.964;2023-11-21T04:11:24;2.40;;;1.07;;
8317;SDS011;4196;48.926;8.964;2023-11-21T04:14:10;3.67;;;2.10;;
8317;SDS011;4196;48.926;8.964;2023-11-21T04:16:57;3.43;;;1.83;;
8317;SDS011;4196;48.926;8.964;2023-11-21T04:19:43;1.67;;;1.50;;
8317;SDS011;4196;48.926;8.964;2023-11-21T04:22:30;2.67;;;0.80;;
8317;SDS011;4196;48.926;8.964;2023-11-21T04:25:17;1.13;;;1.03;;
8317;SDS011;4196;48.926;8.964;2023-11-21T04:28:04;0.80;;;0.80;;
8317;SDS011;4196;48.926;8.964;2023-11-21T04:30:50;1.37;;;0.73;;
8317;SDS011;4196;48.926;8.964;2023-11-21T04:33:37;1.17;;;0.80;;
8317;SDS011;4196;48.926;8.964;2023-11-21T04:36:23;0.77;;;0.77;;
8317;SDS011;4196;48.926;8.964;2023-11-21T04:39:10;1.47;;;0.93;;
8317;SDS011;4196;48.926;8.964;2023-11-21T04:41:57;0.70;;;0.70;;
8317;SDS011;4196;48.926;8.964;2023-11-21T04:44:44;1.00;;;0.80;;
8317;SDS011;4196;48.926;8.964;2023-11-21T04:47:30;1.17;;;0.70;;
8317;SDS011;4196;48.926;8.964;2023-11-21T04:50:17;1.47;;;1.00;;
8317;SDS011;4196;48.926;8.964;2023-11-21T04:53:03;1.40;;;1.30;;
8317;SDS011;4196;48.926;8.964;2023-11-21T04:55:49;3.13;;;1.40;;
8317;SDS011;4196;48.926;8.964;2023-11-21T04:58:36;1.27;;;1.00;;
8317;SDS011;4196;48.926;8.964;2023-11-21T05:01:23;3.67;;;0.93;;
8317;SDS011;4196;48.926;8.964;2023-11-21T05:04:09;1.17;;;1.03;;
8317;SDS011;4196;48.926;8.964;2023-11-21T05:06:56;0.90;;;0.90;;
8317;SDS011;4196;48.926;8.964;2023-11-21T05:09:43;0.90;;;0.90;;
8317;SDS011;4196;48.926;8.964;2023-11-21T05:12:32;0.67;;;0.67;;
8317;SDS011;4196;48.926;8.964;2023-11-21T05:15:24;1.43;;;1.03;;
8317;SDS011;4196;48.926;8.964;2023-11-21T05:18:11;0.77;;;0.77;;
8317;SDS011;4196;48.926;8.964;2023-11-21T05:21:00;3.23;;;0.90;;
8317;SDS011;4196;48.926;8.964;2023-11-21T05:23:47;1.20;;;0.80;;
8317;SDS011;4196;48.926;8.964;2023-11-21T05:26:33;0.83;;;0.73;;
8317;SDS011;4196;48.926;8.964;2023-11-21T05:29:19;1.33;;;1.00;;
8317;SDS011;4196;48.926;8.964;2023-11-21T05:32:06;1.10;;;1.00;;
8317;SDS011;4196;48.926;8.964;2023-11-21T05:34:52;2.57;;;1.10;;
8317;SDS011;4196;48.926;8.964;2023-11-21T05:37:39;1.20;;;1.10;;
8317;SDS011;4196;48.926;8.964;2023-11-21T05:40:26;1.00;;;1.00;;
8317;SDS011;4196;48.926;8.964;2023-11-21T05:43:15;0.90;;;0.90;;
8317;SDS011;4196;48.926;8.964;2023-11-21T05:46:02;2.87;;;1.27;;
8317;SDS011;4196;48.926;8.964;2023-11-21T05:48:48;2.40;;;1.40;;
8317;SDS011;4196;48.926;8.964;2023-11-21T05:51:35;2.47;;;1.20;;
8317;SDS011;4196;48.926;8.964;2023-11-21T05:54:21;2.90;;;1.30;;
8317;SDS011;4196;48.926;8.964;2023-11-21T05:57:08;3.33;;;1.30;;
8317;SDS011;4196;48.926;8.964;2023-11-21T05:59:55;2.50;;;2.00;;
8317;SDS011;4196;48.926;8.964;2023-11-21T06:02:41;2.53;;;1.80;;
8317;SDS011;4196;48.926;8.964;2023-11-21T06:05:28;2.10;;;1.70;;
8317;SDS011;4196;48.926;8.964;2023-11-21T06:08:14;2.13;;;1.53;;
8317;SDS011;4196;48.926;8.964;2023-11-21T06:11:02;1.90;;;1.23;;
8317;SDS011;4196;48.926;8.964;2023-11-21T06:13:49;2.17;;;1.50;;
8317;SDS011;4196;48.926;8.964;2023-11-21T06:16:36;3.60;;;1.50;;
8317;SDS011;4196;48.926;8.964;2023-11-21T06:19:23;1.50;;;1.23;;
8317;SDS011;4196;48.926;8.964;2023-11-21T06:22:09;2.23;;;1.20;;
8317;SDS011;4196;48.926;8.964;2023-11-21T06:24:56;1.47;;;1.37;;
8317;SDS011;4196;48.926;8.964;2023-11-21T06:27:46;1.70;;;1.57;;
8317;SDS011;4196;48.926;8.964;2023-11-21T06:30:36;1.53;;;1.40;;
8317;SDS011;4196;48.926;8.964;2023-11-21T06:33:22;1.53;;;1.43;;
8317;SDS011;4196;48.926;8.964;2023-11-21T06:36:09;2.90;;;1.50;;
8317;SDS011;4196;48.926;8.964;2023-11-21T06:38:57;3.30;;;1.40;;
8317;SDS011;4196;48.926;8.964;2023-11-21T06:41:44;1.40;;;1.30;;
8317;SDS011;4196;48.926;8.964;2023-11-21T06:44:30;2.37;;;1.50;;
8317;SDS011;4196;48.926;8.964;2023-11-21T06:47:17;2.90;;;1.53;;
8317;SDS011;4196;48.926;8.964;2023-11-21T06:50:06;1.97;;;1.43;;
8317;SDS011;4196;48.926;8.964;2023-11-21T06:52:53;1.60;;;1.50;;
8317;SDS011;4196;48.926;8.964;2023-11-21T06:55:40;1.47;;;1.17;;
8317;SDS011;4196;48.926;8.964;2023-11-21T06:58:26;2.83;;;1.50;;
8317;SDS011;4196;48.926;8.964;2023-11-21T07:01:13;2.60;;;1.37;;
8317;SDS011;4196;48.926;8.964;2023-11-21T07:04:00;2.00;;;1.50;;
8317;SDS011;4196;48.926;8.964;2023-11-21T07:06:47;4.23;;;1.50;;
8317;SDS011;4196;48.926;8.964;2023-11-21T07:09:33;1.60;;;1.50;;
8317;SDS011;4196;48.926;8.964;2023-11-21T07:12:19;1.30;;;1.20;;
8317;SDS011;4196;48.926;8.964;2023-11-21T07:15:07;2.33;;;1.40;;
8317;SDS011;4196;48.926;8.964;2023-11-21T07:17:56;2.40;;;1.57;;
8317;SDS011;4196;48.926;8.964;2023-11-21T07:20:43;3.40;;;1.50;;
8317;SDS011;4196;48.926;8.964;2023-11-21T07:23:29;1.80;;;1.70;;
8317;SDS011;4196;48.926;8.964;2023-11-21T07:26:16;2.20;;;1.60;;
8317;SDS011;4196;48.926;8.964;2023-11-21T07:29:04;3.50;;;1.70;;
8317;SDS011;4196;48.926;8.964;2023-11-21T07:31:50;4.47;;;2.13;;
8317;SDS011;4196;48.926;8.964;2023-11-21T07:34:37;3.90;;;2.20;;
8317;SDS011;4196;48.926;8.964;2023-11-21T07:37:24;2.13;;;1.90;;
8317;SDS011;4196;48.926;8.964;2023-11-21T07:40:11;1.90;;;1.80;;
8317;SDS011;4196;48.926;8.964;2023-11-21T07:42:57;2.97;;;2.03;;
8317;SDS011;4196;48.926;8.964;2023-11-21T07:45:47;2.57;;;2.00;;
8317;SDS011;4196;48.926;8.964;2023-11-21T07:48:34;2.93;;;2.23;;
8317;SDS011;4196;48.926;8.964;2023-11-21T07:51:21;2.43;;;2.10;;
8317;SDS011;4196;48.926;8.964;2023-11-21T07:54:08;2.73;;;2.53;;
8317;SDS011;4196;48.926;8.964;2023-11-21T07:56:56;2.87;;;2.50;;
8317;SDS011;4196;48.926;8.964;2023-11-21T07:59:42;5.50;;;2.20;;
8317;SDS011;4196;48.926;8.964;2023-11-21T08:02:29;3.07;;;2.00;;
8317;SDS011;4196;48.926;8.964;2023-11-21T08:05:15;2.40;;;1.90;;
8317;SDS011;4196;48.926;8.964;2023-11-21T08:08:13;5.50;;;2.17;;
8317;SDS011;4196;48.926;8.964;2023-11-21T08:11:00;13.67;;;3.07;;
8317;SDS011;4196;48.926;8.964;2023-11-21T08:13:47;2.53;;;1.90;;
8317;SDS011;4196;48.926;8.964;2023-11-21T08:16:34;2.57;;;2.37;;
8317;SDS011;4196;48.926;8.964;2023-11-21T08:19:21;2.47;;;2.10;;
8317;SDS011;4196;48.926;8.964;2023-11-21T08:22:08;2.67;;;2.17;;
8317;SDS011;4196;48.926;8.964;2023-11-21T08:24:55;8.10;;;3.33;;
8317;SDS011;4196;48.926;8.964;2023-11-21T08:27:43;3.50;;;2.37;;
8317;SDS011;4196;48.926;8.964;2023-11-21T08:30:30;3.53;;;2.70;;
8317;SDS011;4196;48.926;8.964;2023-11-21T08:33:19;2.17;;;1.97;;
8317;SDS011;4196;48.926;8.964;2023-11-21T08:36:08;3.83;;;2.80;;
8317;SDS011;4196;48.926;8.964;2023-11-21T08:38:57;4.50;;;2.10;;
8317;SDS011;4196;48.926;8.964;2023-11-21T08:41:44;5.10;;;2.50;;
8317;SDS011;4196;48.926;8.964;2023-11-21T08:44:30;4.03;;;1.90;;
8317;SDS011;4196;48.926;8.964;2023-11-21T08:47:18;4.80;;;2.73;;
8317;SDS011;4196;48.926;8.964;2023-11-21T08:50:05;4.07;;;2.30;;
8317;SDS011;4196;48.926;8.964;2023-11-21T08:52:54;3.17;;;2.00;;
8317;SDS011;4196;48.926;8.964;2023-11-21T08:55:40;9.27;;;5.47;;
8317;SDS011;4196;48.926;8.964;2023-11-21T08:58:27;10.53;;;5.83;;
8317;SDS011;4196;48.926;8.964;2023-11-21T09:01:14;10.97;;;6.13;;
8317;SDS011;4196;48.926;8.964;2023-11-21T09:04:00;7.67;;;4.70;;
8317;SDS011;4196;48.926;8.964;2023-11-21T09:06:48;6.83;;;3.67;;
8317;SDS011;4196;48.926;8.964;2023-11-21T09:09:35;4.23;;;2.90;;
8317;SDS011;4196;48.926;8.964;2023-11-21T09:12:21;4.73;;;2.57;;
8317;SDS011;4196;48.926;8.964;2023-11-21T09:15:08;1.90;;;1.70;;
8317;SDS011;4196;48.926;8.964;2023-11-21T09:17:57;3.83;;;3.40;;
8317;SDS011;4196;48.926;8.964;2023-11-21T09:20:43;2.60;;;2.40;;
8317;SDS011;4196;48.926;8.964;2023-11-21T09:23:30;2.83;;;2.23;;
8317;SDS011;4196;48.926;8.964;2023-11-21T09:26:17;2.70;;;1.67;;
8317;SDS011;4196;48.926;8.964;2023-11-21T09:29:04;4.03;;;2.00;;
8317;SDS011;4196;48.926;8.964;2023-11-21T09:31:51;2.00;;;1.50;;
8317;SDS011;4196;48.926;8.964;2023-11-21T09:34:38;2.13;;;1.70;;
8317;SDS011;4196;48.926;8.964;2023-11-21T09:37:25;1.17;;;1.07;;
8317;SDS011;4196;48.926;8.964;2023-11-21T09:40:13;1.37;;;1.27;;
8317;SDS011;4196;48.926;8.964;2023-11-21T09:43:05;1.20;;;1.20;;
8317;SDS011;4196;48.926;8.964;2023-11-21T09:45:56;1.90;;;1.17;;
8317;SDS011;4196;48.926;8.964;2023-11-21T09:48:52;1.30;;;1.20;;
8317;SDS011;4196;48.926;8.964;2023-11-21T09:51:40;2.70;;;1.30;;
8317;SDS011;4196;48.926;8.964;2023-11-21T09:54:29;1.20;;;1.10;;
8317;SDS011;4196;48.926;8.964;2023-11-21T09:57:18;0.90;;;0.90;;
8317;SDS011;4196;48.926;8.964;2023-11-21T10:00:09;1.87;;;1.60;;
8317;SDS011;4196;48.926;8.964;2023-11-21T10:02:58;1.50;;;1.40;;
8317;SDS011;4196;48.926;8.964;2023-11-21T10:05:45;2.17;;;1.57;;
8317;SDS011;4196;48.926;8.964;2023-11-21T10:08:36;1.63;;;1.43;;
8317;SDS011;4196;48.926;8.964;2023-11-21T10:11:35;2.07;;;1.20;;
8317;SDS011;4196;48.926;8.964;2023-11-21T10:14:21;1.70;;;1.10;;
8317;SDS011;4196;48.926;8.964;2023-11-21T10:17:11;2.80;;;1.10;;
8317;SDS011;4196;48.926;8.964;2023-11-21T10:19:58;2.63;;;1.40;;
8317;SDS011;4196;48.926;8.964;2023-11-21T10:22:46;1.33;;;1.23;;
8317;SDS011;4196;48.926;8.964;2023-11-21T10:25:32;2.00;;;1.60;;
8317;SDS011;4196;48.926;8.964;2023-11-21T10:28:20;1.83;;;1.73;;
8317;SDS011;4196;48.926;8.964;2023-11-21T10:31:08;1.60;;;1.50;;
8317;SDS011;4196;48.926;8.964;2023-11-21T10:34:17;1.50;;;1.40;;
8317;SDS011;4196;48.926;8.964;2023-11-21T10:37:10;1.37;;;1.27;;
8317;SDS011;4196;48.926;8.964;2023-11-21T10:40:01;1.70;;;1.60;;
8317;SDS011;4196;48.926;8.964;2023-11-21T10:42:48;1.47;;;1.37;;
8317;SDS011;4196;48.926;8.964;2023-11-21T10:45:35;2.50;;;2.27;;
8317;SDS011;4196;48.926;8.964;2023-11-21T10:48:25;2.20;;;1.30;;
8317;SDS011;4196;48.926;8.964;2023-11-21T10:51:11;2.87;;;2.30;;
8317;SDS011;4196;48.926;8.964;2023-11-21T10:53:58;1.87;;;1.63;;
8317;SDS011;4196;48.926;8.964;2023-11-21T10:56:50;1.67;;;1.40;;
8317;SDS011;4196;48.926;8.964;2023-11-21T10:59:41;1.30;;;1.20;;
8317;SDS011;4196;48.926;8.964;2023-11-21T11:02:30;2.03;;;1.93;;
8317;SDS011;4196;48.926;8.964;2023-11-21T11:05:21;2.20;;;2.00;;
8317;SDS011;4196;48.926;8.964;2023-11-21T11:08:11;1.90;;;1.70;;
8317;SDS011;4196;48.926;8.964;2023-11-21T11:10:59;2.07;;;1.90;;
8317;SDS011;4196;48.926;8.964;2023-11-21T11:13:45;2.93;;;1.70;;
8317;SDS011;4196;48.926;8.964;2023-11-21T11:16:32;3.20;;;1.70;;
8317;SDS011;4196;48.926;8.964;2023-11-21T11:19:21;2.83;;;1.60;;
8317;SDS011;4196;48.926;8.964;2023-11-21T11:33:52;4.40;;;2.67;;
8317;SDS011;4196;48.926;8.964;2023-11-21T11:36:44;3.10;;;2.10;;
8317;SDS011;4196;48.926;8.964;2023-11-21T11:39:35;2.70;;;2.33;;
8317;SDS011;4196;48.926;8.964;2023-11-21T11:42:22;4.60;;;2.60;;
8317;SDS011;4196;48.926;8.964;2023-11-21T11:45:19;4.77;;;2.70;;
8317;SDS011;4196;48.926;8.964;2023-11-21T11:48:06;3.83;;;2.73;;
8317;SDS011;4196;48.926;8.964;2023-11-21T11:53:51;26.87;;;12.37;;
8317;SDS011;4196;48.926;8.964;2023-11-21T11:56:38;6.77;;;3.80;;
8317;SDS011;4196;48.926;8.964;2023-11-21T11:59:26;4.20;;;2.90;;
8317;SDS011;4196;48.926;8.964;2023-11-21T12:02:12;2.40;;;1.93;;
8317;SDS011;4196;48.926;8.964;2023-11-21T12:04:59;3.77;;;2.33;;
8317;SDS011;4196;48.926;8.964;2023-11-21T12:07:47;7.20;;;3.90;;
8317;SDS011;4196;48.926;8.964;2023-11-21T12:10:41;8.70;;;4.27;;
8317;SDS011;4196;48.926;8.964;2023-11-21T12:13:28;5.67;;;3.37;;
8317;SDS011;4196;48.926;8.964;2023-11-21T12:16:15;8.97;;;5.60;;
8317;SDS011;4196;48.926;8.964;2023-11-21T12:19:02;6.47;;;4.70;;
8317;SDS011;4196;48.926;8.964;2023-11-21T12:21:49;4.93;;;3.10;;
8317;SDS011;4196;48.926;8.964;2023-11-21T12:24:35;3.93;;;2.93;;
8317;SDS011;4196;48.926;8.964;2023-11-21T12:27:22;3.43;;;2.40;;
8317;SDS011;4196;48.926;8.964;2023-11-21T12:30:08;2.30;;;1.90;;
8317;SDS011;4196;48.926;8.964;2023-11-21T12:32:59;2.70;;;2.30;;
8317;SDS011;4196;48.926;8.964;2023-11-21T12:35:47;2.70;;;2.07;;
8317;SDS011;4196;48.926;8.964;2023-11-21T12:38:35;2.93;;;1.90;;
8317;SDS011;4196;48.926;8.964;2023-11-21T12:41:21;3.63;;;1.87;;
8317;SDS011;4196;48.926;8.964;2023-11-21T12:44:12;3.30;;;1.80;;
8317;SDS011;4196;48.926;8.964;2023-11-21T12:46:59;2.33;;;2.10;;
8317;SDS011;4196;48.926;8.964;2023-11-21T12:49:46;2.70;;;1.70;;
8317;SDS011;4196;48.926;8.964;2023-11-21T12:52:35;1.60;;;1.50;;
8317;SDS011;4196;48.926;8.964;2023-11-21T12:55:22;2.00;;;1.53;;
8317;SDS011;4196;48.926;8.964;2023-11-21T12:58:09;2.90;;;2.70;;
8317;SDS011;4196;48.926;8.964;2023-11-21T13:00:57;3.80;;;3.50;;
8317;SDS011;4196;48.926;8.964;2023-11-21T13:03:46;2.50;;;1.60;;
8317;SDS011;4196;48.926;8.964;2023-11-21T13:06:34;0.90;;;0.90;;
8317;SDS011;4196;48.926;8.964;2023-11-21T13:09:26;1.20;;;1.20;;
8317;SDS011;4196;48.926;8.964;2023-11-21T13:12:14;1.97;;;1.87;;
8317;SDS011;4196;48.926;8.964;2023-11-21T13:15:05;1.10;;;1.10;;
8317;SDS011;4196;48.926;8.964;2023-11-21T13:17:53;1.00;;;1.00;;
8317;SDS011;4196;48.926;8.964;2023-11-21T13:20:41;1.07;;;1.07;;
8317;SDS011;4196;48.926;8.964;2023-11-21T13:23:29;0.83;;;0.80;;
8317;SDS011;4196;48.926;8.964;2023-11-21T13:26:20;0.97;;;0.97;;
8317;SDS011;4196;48.926;8.964;2023-11-21T13:29:08;1.17;;;1.07;;
8317;SDS011;4196;48.926;8.964;2023-11-21T13:31:55;0.90;;;0.90;;
8317;SDS011;4196;48.926;8.964;2023-11-21T13:34:42;0.90;;;0.83;;
8317;SDS011;4196;48.926;8.964;2023-11-21T13:37:31;1.37;;;1.13;;
8317;SDS011;4196;48.926;8.964;2023-11-21T13:40:22;1.83;;;1.00;;
8317;SDS011;4196;48.926;8.964;2023-11-21T13:43:13;1.70;;;0.83;;
8317;SDS011;4196;48.926;8.964;2023-11-21T13:46:02;2.33;;;1.40;;
8317;SDS011;4196;48.926;8.964;2023-11-21T13:48:59;1.00;;;1.00;;
8317;SDS011;4196;48.926;8.964;2023-11-21T13:51:46;1.07;;;1.07;;
8317;SDS011;4196;48.926;8.964;2023-11-21T13:54:37;1.30;;;1.13;;
8317;SDS011;4196;48.926;8.964;2023-11-21T13:57:24;3.00;;;1.63;;
8317;SDS011;4196;48.926;8.964;2023-11-21T14:00:11;2.40;;;2.23;;
8317;SDS011;4196;48.926;8.964;2023-11-21T14:03:18;1.43;;;1.20;;
8317;SDS011;4196;48.926;8.964;2023-11-21T14:06:07;2.57;;;1.70;;
8317;SDS011;4196;48.926;8.964;2023-11-21T14:09:00;1.53;;;1.43;;
8317;SDS011;4196;48.926;8.964;2023-11-21T14:11:51;1.97;;;1.67;;
8317;SDS011;4196;48.926;8.964;2023-11-21T14:14:39;2.13;;;1.70;;
8317;SDS011;4196;48.926;8.964;2023-11-21T14:17:26;1.43;;;1.30;;
8317;SDS011;4196;48.926;8.964;2023-11-21T14:20:13;3.23;;;2.03;;
8317;SDS011;4196;48.926;8.964;2023-11-21T14:23:04;5.20;;;1.80;;
8317;SDS011;4196;48.926;8.964;2023-11-21T14:25:52;4.00;;;2.73;;
8317;SDS011;4196;48.926;8.964;2023-11-21T14:28:39;3.17;;;2.40;;
8317;SDS011;4196;48.926;8.964;2023-11-21T14:31:26;4.53;;;2.93;;
8317;SDS011;4196;48.926;8.964;2023-11-21T14:34:14;2.23;;;1.80;;
8317;SDS011;4196;48.926;8.964;2023-11-21T14:37:06;8.07;;;7.37;;
8317;SDS011;4196;48.926;8.964;2023-11-21T14:39:53;8.97;;;5.27;;
8317;SDS011;4196;48.926;8.964;2023-11-21T14:42:40;9.47;;;4.73;;
8317;SDS011;4196;48.926;8.964;2023-11-21T14:45:27;5.27;;;3.43;;
8317;SDS011;4196;48.926;8.964;2023-11-21T14:48:15;5.00;;;4.10;;
8317;SDS011;4196;48.926;8.964;2023-11-21T14:51:17;5.50;;;3.37;;
8317;SDS011;4196;48.926;8.964;2023-11-21T14:54:17;3.17;;;2.43;;
8317;SDS011;4196;48.926;8.964;2023-11-21T14:57:13;2.37;;;2.17;;
8317;SDS011;4196;48.926;8.964;2023-11-21T15:00:04;11.73;;;6.73;;
8317;SDS011;4196;48.926;8.964;2023-11-21T15:02:55;3.27;;;2.57;;
8317;SDS011;4196;48.926;8.964;2023-11-21T15:05:42;3.87;;;3.27;;
8317;SDS011;4196;48.926;8.964;2023-11-21T15:08:29;3.50;;;2.40;;
8317;SDS011;4196;48.926;8.964;2023-11-21T15:11:18;3.00;;;2.33;;
8317;SDS011;4196;48.926;8.964;2023-11-21T15:14:08;4.03;;;2.53;;
8317;SDS011;4196;48.926;8.964;2023-11-21T15:16:55;4.03;;;2.53;;
8317;SDS011;4196;48.926;8.964;2023-11-21T15:19:46;5.90;;;3.47;;
8317;SDS011;4196;48.926;8.964;2023-11-21T15:22:33;3.30;;;2.43;;
8317;SDS011;4196;48.926;8.964;2023-11-21T15:25:19;6.23;;;3.77;;
8317;SDS011;4196;48.926;8.964;2023-11-21T15:28:06;3.43;;;2.60;;
8317;SDS011;4196;48.926;8.964;2023-11-21T15:30:53;8.63;;;4.43;;
8317;SDS011;4196;48.926;8.964;2023-11-21T15:33:39;3.57;;;2.97;;
8317;SDS011;4196;48.926;8.964;2023-11-21T15:36:26;5.50;;;3.40;;
8317;SDS011;4196;48.926;8.964;2023-11-21T15:39:13;24.87;;;11.90;;
8317;SDS011;4196;48.926;8.964;2023-11-21T15:42:00;30.40;;;16.77;;
8317;SDS011;4196;48.926;8.964;2023-11-21T15:44:46;20.47;;;12.93;;
8317;SDS011;4196;48.926;8.964;2023-11-21T15:47:36;43.77;;;22.97;;
8317;SDS011;4196;48.926;8.964;2023-11-21T15:50:22;30.17;;;17.07;;
8317;SDS011;4196;48.926;8.964;2023-11-21T15:53:10;31.70;;;18.53;;
8317;SDS011;4196;48.926;8.964;2023-11-21T15:55:57;18.47;;;10.67;;
8317;SDS011;4196;48.926;8.964;2023-11-21T15:58:44;5.70;;;3.77;;
8317;SDS011;4196;48.926;8.964;2023-11-21T16:01:34;6.43;;;3.30;;
8317;SDS011;4196;48.926;8.964;2023-11-21T16:04:21;5.90;;;3.30;;
8317;SDS011;4196;48.926;8.964;2023-11-21T16:07:09;11.33;;;6.47;;
8317;SDS011;4196;48.926;8.964;2023-11-21T16:09:57;7.90;;;4.50;;
8317;SDS011;4196;48.926;8.964;2023-11-21T16:12:43;10.00;;;5.77;;
8317;SDS011;4196;48.926;8.964;2023-11-21T16:15:30;9.60;;;5.33;;
8317;SDS011;4196;48.926;8.964;2023-11-21T16:18:17;6.57;;;5.30;;
8317;SDS011;4196;48.926;8.964;2023-11-21T16:21:04;7.70;;;5.07;;
8317;SDS011;4196;48.926;8.964;2023-11-21T16:23:50;10.33;;;5.43;;
8317;SDS011;4196;48.926;8.964;2023-11-21T16:26:41;10.10;;;5.80;;
8317;SDS011;4196;48.926;8.964;2023-11-21T16:29:31;9.07;;;5.53;;
8317;SDS011;4196;48.926;8.964;2023-11-21T16:32:19;8.07;;;4.67;;
8317;SDS011;4196;48.926;8.964;2023-11-21T16:35:06;7.97;;;5.57;;
8317;SDS011;4196;48.926;8.964;2023-11-21T16:37:53;6.70;;;4.60;;
8317;SDS011;4196;48.926;8.964;2023-11-21T16:40:39;7.23;;;4.70;;
8317;SDS011;4196;48.926;8.964;2023-11-21T16:43:26;8.27;;;4.53;;
8317;SDS011;4196;48.926;8.964;2023-11-21T16:46:13;11.10;;;6.33;;
8317;SDS011;4196;48.926;8.964;2023-11-21T16:49:00;12.30;;;7.03;;
8317;SDS011;4196;48.926;8.964;2023-11-21T16:51:46;21.97;;;9.30;;
8317;SDS011;4196;48.926;8.964;2023-11-21T16:54:33;19.13;;;8.33;;
8317;SDS011;4196;48.926;8.964;2023-11-21T16:57:19;15.20;;;7.57;;
8317;SDS011;4196;48.926;8.964;2023-11-21T17:00:06;13.67;;;6.63;;
8317;SDS011;4196;48.926;8.964;2023-11-21T17:02:53;13.70;;;7.47;;
8317;SDS011;4196;48.926;8.964;2023-11-21T17:05:41;17.67;;;9.37;;
8317;SDS011;4196;48.926;8.964;2023-11-21T17:08:27;18.97;;;12.60;;
8317;SDS011;4196;48.926;8.964;2023-11-21T17:11:15;35.30;;;19.77;;
8317;SDS011;4196;48.926;8.964;2023-11-21T17:14:02;19.17;;;10.00;;
8317;SDS011;4196;48.926;8.964;2023-11-21T17:16:48;21.97;;;10.27;;
8317;SDS011;4196;48.926;8.964;2023-11-21T17:19:36;14.53;;;9.20;;
8317;SDS011;4196;48.926;8.964;2023-11-21T17:22:23;43.33;;;24.17;;
8317;SDS011;4196;48.926;8.964;2023-11-21T17:25:10;28.73;;;17.10;;
8317;SDS011;4196;48.926;8.964;2023-11-21T17:27:56;16.73;;;10.40;;
8317;SDS011;4196;48.926;8.964;2023-11-21T17:30:43;16.77;;;10.70;;
8317;SDS011;4196;48.926;8.964;2023-11-21T17:33:30;24.37;;;15.10;;